createdAt,value
2022-09-20T00:02:05.545Z,11.30
2022-09-20T00:05:08.157Z,11.40
2022-09-20T00:08:14.443Z,11.40
2022-09-20T00:11:30.968Z,11.40
2022-09-20T00:14:33.284Z,11.40
2022-09-20T00:17:35.267Z,11.40
2022-09-20T00:20:37.898Z,11.50
2022-09-20T00:23:40.749Z,11.40
2022-09-20T00:26:42.710Z,11.40
2022-09-20T00:29:44.731Z,10.90
2022-09-20T00:32:48.968Z,10.90
2022-09-20T00:35:51.696Z,11.10
2022-09-20T00:38:57.432Z,11.30
2022-09-20T00:41:59.567Z,11.50
2022-09-20T00:45:17.714Z,11.60
2022-09-20T00:48:27.960Z,11.40
2022-09-20T00:51:34.937Z,11.40
2022-09-20T00:54:37.184Z,11.50
2022-09-20T00:57:39.896Z,11.70
2022-09-20T01:00:44.494Z,11.70
2022-09-20T01:03:47.954Z,11.80
2022-09-20T01:06:53.528Z,11.70
2022-09-20T01:09:55.913Z,11.60
2022-09-20T01:12:57.951Z,11.70
2022-09-20T01:16:01.089Z,11.90
2022-09-20T01:19:13.511Z,11.90
2022-09-20T01:22:34.522Z,11.90
2022-09-20T01:26:10.097Z,11.90
2022-09-20T01:29:49.713Z,11.90
2022-09-20T01:33:18.264Z,12.10
2022-09-20T01:36:51.191Z,12.10
2022-09-20T01:40:26.377Z,12.10
2022-09-20T01:44:12.871Z,12.20
2022-09-20T01:47:25.060Z,12.10
2022-09-20T01:50:50.104Z,12.10
2022-09-20T01:54:23.001Z,12.20
2022-09-20T01:57:39.676Z,12.20
2022-09-20T02:01:04.423Z,12.30
2022-09-20T02:04:27.774Z,12.10
2022-09-20T02:07:48.411Z,12.20
2022-09-20T02:10:50.248Z,12.30
2022-09-20T02:14:12.964Z,12.20
2022-09-20T02:17:21.583Z,12.30
2022-09-20T02:21:17.620Z,12.30
2022-09-20T02:24:43.959Z,12.30
2022-09-20T02:28:03.969Z,12.30
2022-09-20T02:31:32.063Z,12.20
2022-09-20T02:34:42.891Z,12.30
2022-09-20T02:37:59.911Z,12.30
2022-09-20T02:41:23.577Z,12.40
2022-09-20T02:44:46.439Z,12.30
2022-09-20T02:47:53.909Z,12.40
2022-09-20T02:51:41.117Z,12.40
2022-09-20T02:55:00.595Z,12.40
2022-09-20T02:58:30.871Z,12.40
2022-09-20T03:02:11.839Z,12.30
2022-09-20T03:05:26.212Z,12.40
2022-09-20T03:08:46.922Z,12.40
2022-09-20T03:12:12.914Z,12.30
2022-09-20T03:15:40.786Z,12.40
2022-09-20T03:19:10.627Z,12.40
2022-09-20T03:22:36.434Z,12.40
2022-09-20T03:25:47.412Z,12.40
2022-09-20T03:29:02.166Z,12.40
2022-09-20T03:32:16.249Z,12.40
2022-09-20T03:35:21.368Z,12.40
2022-09-20T03:38:58.989Z,12.40
2022-09-20T03:45:44.760Z,12.40
2022-09-20T03:49:16.009Z,12.40
2022-09-20T03:52:29.187Z,12.30
2022-09-20T03:55:49.377Z,12.30
2022-09-20T03:59:20.315Z,12.30
2022-09-20T04:02:47.969Z,12.20
2022-09-20T04:06:17.013Z,12.20
2022-09-20T04:09:37.521Z,12.20
2022-09-20T04:13:01.901Z,12.10
2022-09-20T04:16:10.243Z,12.10
2022-09-20T04:19:35.295Z,12.10
2022-09-20T04:22:37.470Z,12.10
2022-09-20T04:25:49.421Z,12.00
2022-09-20T04:29:09.711Z,12.00
2022-09-20T04:32:33.492Z,11.90
2022-09-20T04:36:00.990Z,12.00
2022-09-20T04:39:07.123Z,12.00
2022-09-20T04:42:49.406Z,11.90
2022-09-20T04:46:29.135Z,12.00
2022-09-20T04:49:42.998Z,11.90
2022-09-20T04:53:33.415Z,12.10
2022-09-20T04:56:38.245Z,11.90
2022-09-20T05:00:11.560Z,11.90
2022-09-20T05:03:34.881Z,11.80
2022-09-20T05:07:01.824Z,11.80
2022-09-20T05:10:38.764Z,11.80
2022-09-20T05:14:03.840Z,11.80
2022-09-20T05:17:40.009Z,11.70
2022-09-20T05:20:52.345Z,11.90
2022-09-20T05:24:25.283Z,11.70
2022-09-20T05:27:45.186Z,11.90
2022-09-20T05:30:57.822Z,11.90
2022-09-20T05:34:18.969Z,11.90
2022-09-20T05:37:42.540Z,11.90
2022-09-20T05:40:59.469Z,12.00
2022-09-20T05:44:29.230Z,11.90
2022-09-20T05:47:55.217Z,12.00
2022-09-20T05:51:14.031Z,12.30
2022-09-20T05:54:34.603Z,12.40
2022-09-20T05:57:42.253Z,12.40
2022-09-20T06:01:03.755Z,12.70
2022-09-20T06:04:31.140Z,12.60
2022-09-20T06:08:04.147Z,12.70
2022-09-20T06:11:26.903Z,12.80
2022-09-20T06:14:49.006Z,12.80
2022-09-20T06:18:29.442Z,12.90
2022-09-20T06:21:44.546Z,12.90
2022-09-20T06:25:00.032Z,12.90
2022-09-20T06:28:23.904Z,12.90
2022-09-20T06:31:26.909Z,13.00
2022-09-20T06:34:29.471Z,13.10
2022-09-20T06:37:47.622Z,13.00
2022-09-20T06:40:51.359Z,13.10
2022-09-20T06:43:53.207Z,13.30
2022-09-20T06:46:55.199Z,13.20
2022-09-20T06:49:57.045Z,13.30
2022-09-20T06:52:58.935Z,13.70
2022-09-20T06:56:01.947Z,14.00
2022-09-20T06:59:05.075Z,14.40
2022-09-20T07:02:07.066Z,14.60
2022-09-20T07:05:15.073Z,14.50
2022-09-20T07:08:17.405Z,14.50
2022-09-20T07:11:19.289Z,14.40
2022-09-20T07:14:22.406Z,14.30
2022-09-20T07:17:24.305Z,14.30
2022-09-20T07:20:27.063Z,14.30
2022-09-20T07:23:30.099Z,14.30
2022-09-20T07:26:32.546Z,14.50
2022-09-20T07:29:36.940Z,14.60
2022-09-20T07:32:38.863Z,15.40
2022-09-20T07:35:40.694Z,16.70
2022-09-20T07:38:43.591Z,17.40
2022-09-20T07:41:45.595Z,18.00
2022-09-20T07:44:47.586Z,17.20
2022-09-20T07:47:49.416Z,16.70
2022-09-20T07:50:56.606Z,16.40
2022-09-20T07:53:58.533Z,16.70
2022-09-20T07:57:00.354Z,17.30
2022-09-20T08:00:02.795Z,16.80
2022-09-20T08:03:14.298Z,16.70
2022-09-20T08:06:16.234Z,17.30
2022-09-20T08:09:18.065Z,17.10
2022-09-20T08:15:42.294Z,16.90
2022-09-20T08:18:52.185Z,16.70
2022-09-20T08:21:54.146Z,16.70
2022-09-20T08:24:55.965Z,16.90
2022-09-20T08:27:57.897Z,17.60
2022-09-20T08:31:07.474Z,18.40
2022-09-20T08:34:13.334Z,19.30
2022-09-20T08:37:15.155Z,19.70
2022-09-20T08:40:17.185Z,20.00
2022-09-20T08:43:22.276Z,19.40
2022-09-20T08:46:29.176Z,18.90
2022-09-20T08:49:32.199Z,18.90
2022-09-20T08:52:37.469Z,18.90
2022-09-20T08:55:40.632Z,19.80
2022-09-20T08:58:42.964Z,20.80
2022-09-20T09:01:44.854Z,21.20
2022-09-20T09:04:48.632Z,21.80
2022-09-20T09:07:50.514Z,21.70
2022-09-20T09:14:13.802Z,22.50
2022-09-20T09:17:18.660Z,22.20
2022-09-20T09:20:23.116Z,22.70
2022-09-20T09:23:27.556Z,22.60
2022-09-20T09:26:39.203Z,22.40
2022-09-20T09:29:51.907Z,22.50
2022-09-20T09:33:22.603Z,22.80
2022-09-20T09:36:26.091Z,22.40
2022-09-20T09:39:29.478Z,22.10
2022-09-20T09:42:31.538Z,22.70
2022-09-20T09:45:38.452Z,22.00
2022-09-20T09:48:40.611Z,22.40
2022-09-20T09:51:59.684Z,22.50
2022-09-20T09:55:05.835Z,21.60
2022-09-20T09:58:25.184Z,22.20
2022-09-20T10:01:50.884Z,22.50
2022-09-20T10:05:19.052Z,22.60
2022-09-20T10:08:49.145Z,21.70
2022-09-20T10:12:03.399Z,21.00
2022-09-20T10:15:23.983Z,21.60
2022-09-20T10:18:35.072Z,21.80
2022-09-20T10:22:09.358Z,20.40
2022-09-20T10:25:41.351Z,19.40
2022-09-20T10:29:13.799Z,19.20
2022-09-20T10:32:18.527Z,19.20
2022-09-20T10:35:35.907Z,19.10
2022-09-20T10:38:59.228Z,18.70
2022-09-20T10:42:23.215Z,18.90
2022-09-20T10:46:20.929Z,20.40
2022-09-20T10:49:41.139Z,21.30
2022-09-20T11:03:58.685Z,20.70
2022-09-20T11:07:30.584Z,19.60
2022-09-20T11:10:38.185Z,19.70
2022-09-20T11:14:05.072Z,19.40
2022-09-20T11:17:17.591Z,19.20
2022-09-20T11:20:27.909Z,19.00
2022-09-20T11:23:57.426Z,18.90
2022-09-20T11:27:18.844Z,18.70
2022-09-20T11:30:22.829Z,18.70
2022-09-20T11:33:43.200Z,18.90
2022-09-20T11:37:03.391Z,19.20
2022-09-20T11:40:27.434Z,19.70
2022-09-20T11:43:30.383Z,19.40
2022-09-20T11:46:38.633Z,19.10
2022-09-20T11:50:04.567Z,18.90
2022-09-20T11:53:27.014Z,18.60
2022-09-20T11:56:33.189Z,18.80
2022-09-20T11:59:42.367Z,19.40
2022-09-20T12:02:51.533Z,19.30
2022-09-20T12:06:01.753Z,20.00
2022-09-20T12:09:07.530Z,20.10
2022-09-20T12:12:31.130Z,20.30
2022-09-20T12:15:40.085Z,20.20
2022-09-20T12:18:48.071Z,20.00
2022-09-20T12:21:59.077Z,20.00
2022-09-20T12:25:38.209Z,19.90
2022-09-20T12:28:42.853Z,19.70
2022-09-20T12:31:49.449Z,19.70
2022-09-20T12:34:51.367Z,20.00
2022-09-20T12:37:53.302Z,19.60
2022-09-20T12:41:27.891Z,19.40
2022-09-20T12:44:53.388Z,19.00
2022-09-20T12:47:56.433Z,18.80
2022-09-20T12:51:18.062Z,18.70
2022-09-20T12:54:20.029Z,18.50
2022-09-20T12:57:31.863Z,18.50
2022-09-20T13:00:36.003Z,18.40
2022-09-20T13:03:42.304Z,18.80
2022-09-20T13:06:44.527Z,19.00
2022-09-20T13:09:47.711Z,19.50
2022-09-20T13:12:54.675Z,19.20
2022-09-20T13:15:57.650Z,18.90
2022-09-20T13:19:19.848Z,19.40
2022-09-20T13:22:29.531Z,19.30
2022-09-20T13:25:33.192Z,19.40
2022-09-20T13:28:44.227Z,19.30
2022-09-20T13:31:46.135Z,19.50
2022-09-20T13:35:05.463Z,19.40
2022-09-20T13:38:09.191Z,19.10
2022-09-20T13:41:11.599Z,19.00
2022-09-20T13:44:17.444Z,19.20
2022-09-20T13:47:31.286Z,18.80
2022-09-20T13:50:35.422Z,19.20
2022-09-20T13:53:41.910Z,19.00
2022-09-20T13:56:44.268Z,19.10
2022-09-20T13:59:46.828Z,19.20
2022-09-20T14:02:49.325Z,19.40
2022-09-20T14:05:59.660Z,19.20
2022-09-20T14:09:10.513Z,19.50
2022-09-20T14:12:13.712Z,19.00
2022-09-20T14:15:15.811Z,18.80
2022-09-20T14:18:19.483Z,18.60
2022-09-20T14:21:26.996Z,18.40
2022-09-20T14:24:34.202Z,18.40
2022-09-20T14:27:42.579Z,18.20
2022-09-20T14:30:46.559Z,18.00
2022-09-20T14:33:54.966Z,17.90
2022-09-20T14:37:09.765Z,17.90
2022-09-20T14:40:32.264Z,17.90
2022-09-20T14:43:36.265Z,17.90
2022-09-20T14:46:38.179Z,17.80
2022-09-20T14:49:45.546Z,17.90
2022-09-20T14:52:47.507Z,17.90
2022-09-20T14:56:04.075Z,18.10
2022-09-20T14:59:13.339Z,18.30
2022-09-20T15:02:16.190Z,18.20
2022-09-20T15:05:19.576Z,18.10
2022-09-20T15:08:21.591Z,18.10
2022-09-20T15:11:23.483Z,18.00
2022-09-20T15:14:25.366Z,18.10
2022-09-20T15:17:27.279Z,18.00
2022-09-20T15:20:29.525Z,18.20
2022-09-20T15:26:38.818Z,18.40
2022-09-20T15:29:40.801Z,18.50
2022-09-20T15:32:46.530Z,18.60
2022-09-20T15:35:48.956Z,18.60
2022-09-20T15:38:54.099Z,18.70
2022-09-20T15:41:56.009Z,18.50
2022-09-20T15:44:57.932Z,18.40
2022-09-20T15:47:59.831Z,18.20
2022-09-20T15:51:02.789Z,18.20
2022-09-20T15:54:06.388Z,18.40
2022-09-20T15:57:08.270Z,18.50
2022-09-20T16:00:10.855Z,18.60
2022-09-20T16:03:12.696Z,18.40
2022-09-20T16:06:14.716Z,18.20
2022-09-20T16:09:17.056Z,18.10
2022-09-20T16:12:19.826Z,17.90
2022-09-20T16:15:21.715Z,17.80
2022-09-20T16:18:23.951Z,17.80
2022-09-20T16:21:26.120Z,17.70
2022-09-20T16:24:30.901Z,17.70
2022-09-20T16:27:33.013Z,17.50
2022-09-20T16:30:34.885Z,17.50
2022-09-20T16:33:36.727Z,17.50
2022-09-20T16:36:38.981Z,17.40
2022-09-20T16:39:40.775Z,17.40
2022-09-20T16:42:42.570Z,17.30
2022-09-20T16:45:44.503Z,17.30
2022-09-20T16:48:47.378Z,17.20
2022-09-20T16:51:49.269Z,17.10
2022-09-20T16:54:51.162Z,17.00
2022-09-20T16:57:53.007Z,17.00
2022-09-20T17:00:55.060Z,16.90
2022-09-20T17:03:57.236Z,16.80
2022-09-20T17:06:59.093Z,16.60
2022-09-20T17:10:00.958Z,16.50
2022-09-20T17:13:02.836Z,16.40
2022-09-20T17:16:07.284Z,16.40
2022-09-20T17:19:13.923Z,16.20
2022-09-20T17:22:15.768Z,16.20
2022-09-20T17:25:17.592Z,16.10
2022-09-20T17:28:19.519Z,16.00
2022-09-20T17:31:23.665Z,15.90
2022-09-20T17:34:26.040Z,15.90
2022-09-20T17:37:27.827Z,15.90
2022-09-20T17:40:29.837Z,15.70
2022-09-20T17:43:31.767Z,15.70
2022-09-20T17:46:34.987Z,15.70
2022-09-20T17:49:36.898Z,15.50
2022-09-20T17:52:38.851Z,15.60
2022-09-20T17:55:40.662Z,15.60
2022-09-20T17:58:43.011Z,15.60
2022-09-20T18:01:47.690Z,15.40
2022-09-20T18:04:49.785Z,15.40
2022-09-20T18:07:52.447Z,15.40
2022-09-20T18:10:58.194Z,15.40
2022-09-20T18:14:03.505Z,15.40
2022-09-20T18:17:05.384Z,15.40
2022-09-20T18:20:07.946Z,15.40
2022-09-20T18:23:09.915Z,15.40
2022-09-20T18:26:23.241Z,15.30
2022-09-20T18:29:25.093Z,15.40
2022-09-20T18:32:27.277Z,15.40
2022-09-20T18:35:29.170Z,15.40
2022-09-20T18:38:31.789Z,15.20
2022-09-20T18:41:37.102Z,15.10
2022-09-20T18:44:39.019Z,14.80
2022-09-20T18:47:40.869Z,15.00
2022-09-20T18:50:42.673Z,14.80
2022-09-20T18:53:44.543Z,14.50
2022-09-20T18:56:50.908Z,14.80
2022-09-20T18:59:55.231Z,15.00
2022-09-20T19:03:12.538Z,14.90
2022-09-20T19:06:16.816Z,14.90
2022-09-20T19:09:28.623Z,14.90
2022-09-20T19:12:39.877Z,14.50
2022-09-20T19:16:02.762Z,14.30
2022-09-20T19:19:23.533Z,14.10
2022-09-20T19:22:48.495Z,14.10
2022-09-20T19:26:01.414Z,14.40
2022-09-20T19:29:04.261Z,14.50
2022-09-20T19:32:06.648Z,14.40
2022-09-20T19:35:25.768Z,14.10
2022-09-20T19:38:45.267Z,14.40
2022-09-20T19:42:12.126Z,14.20
2022-09-20T19:45:21.419Z,14.00
2022-09-20T19:48:37.766Z,13.90
2022-09-20T19:51:41.359Z,14.00
2022-09-20T19:54:46.396Z,13.90
2022-09-20T19:57:48.776Z,13.90
2022-09-20T20:00:51.376Z,14.00
2022-09-20T20:03:54.433Z,14.00
2022-09-20T20:07:24.695Z,14.10
2022-09-20T20:11:02.501Z,14.20
2022-09-20T20:14:17.234Z,14.00
2022-09-20T20:17:32.742Z,14.00
2022-09-20T20:20:45.503Z,14.10
2022-09-20T20:24:02.897Z,14.00
2022-09-20T20:27:04.786Z,13.60
2022-09-20T20:30:07.168Z,13.40
2022-09-20T20:33:16.629Z,13.50
2022-09-20T20:36:18.458Z,13.60
2022-09-20T20:39:20.344Z,13.80
2022-09-20T20:42:22.204Z,13.80
2022-09-20T20:45:24.146Z,13.80
2022-09-20T20:48:25.967Z,13.60
2022-09-20T20:51:27.840Z,13.50
2022-09-20T20:54:29.701Z,13.60
2022-09-20T20:57:31.672Z,13.60
2022-09-20T21:00:33.582Z,13.70
2022-09-20T21:03:35.774Z,13.70
2022-09-20T21:06:39.323Z,13.70
2022-09-20T21:09:41.578Z,13.50
2022-09-20T21:12:43.771Z,13.40
2022-09-20T21:15:45.887Z,13.20
2022-09-20T21:18:48.953Z,13.10
2022-09-20T21:21:50.947Z,13.00
2022-09-20T21:24:52.904Z,13.00
2022-09-20T21:27:54.918Z,12.90
2022-09-20T21:31:01.560Z,12.70
2022-09-20T21:34:08.046Z,12.70
2022-09-20T21:37:10.136Z,12.80
2022-09-20T21:40:12.368Z,12.80
2022-09-20T21:43:14.532Z,12.90
2022-09-20T21:46:18.788Z,12.60
2022-09-20T21:49:20.929Z,12.70
2022-09-20T21:52:22.886Z,12.80
2022-09-20T21:55:24.856Z,12.70
2022-09-20T21:58:28.215Z,12.30
2022-09-20T22:01:32.057Z,12.10
2022-09-20T22:04:34.216Z,12.00
2022-09-20T22:07:36.298Z,12.00
2022-09-20T22:10:38.333Z,12.20
2022-09-20T22:13:45.187Z,12.30
2022-09-20T22:16:48.577Z,12.30
2022-09-20T22:19:50.637Z,12.30
2022-09-20T22:22:52.622Z,12.20
2022-09-20T22:26:03.615Z,12.40
2022-09-20T22:29:06.781Z,12.30
2022-09-20T22:32:08.822Z,11.90
2022-09-20T22:35:10.873Z,11.70
2022-09-20T22:38:12.800Z,11.90
2022-09-20T22:41:16.721Z,12.00
2022-09-20T22:44:18.756Z,12.00
2022-09-20T22:47:20.844Z,11.90
2022-09-20T22:50:22.913Z,11.60
2022-09-20T22:53:24.942Z,11.50
2022-09-20T22:56:29.021Z,11.30
2022-09-20T22:59:31.077Z,11.30
2022-09-20T23:02:35.381Z,11.40
2022-09-20T23:05:39.996Z,11.40
2022-09-20T23:08:42.551Z,11.50
2022-09-20T23:11:44.942Z,11.40
2022-09-20T23:14:46.965Z,11.50
2022-09-20T23:17:48.923Z,11.10
2022-09-20T23:21:01.777Z,10.70
2022-09-20T23:24:06.622Z,10.80
2022-09-20T23:27:08.726Z,10.80
2022-09-20T23:30:11.064Z,11.00
2022-09-20T23:33:13.127Z,11.00
2022-09-20T23:36:16.047Z,10.90
2022-09-20T23:39:18.090Z,11.20
2022-09-20T23:42:20.056Z,11.10
2022-09-20T23:45:22.023Z,11.30
2022-09-20T23:48:24.297Z,11.20
2022-09-20T23:51:26.716Z,11.20
2022-09-20T23:54:28.821Z,11.30
2022-09-20T23:57:30.746Z,11.20
